Time;durP1;ratioP1;P1;durP2;ratioP2;P2;SDS_P1;SDS_P2;PMS_P1;PMS_P2;Temp;Humidity;BMP_temperature;BMP_pressure;BME280_temperature;BME280_humidity;BME280_pressure;Samples;Min_cycle;Max_cycle;Signal;HPM_P1;HPM_P2
2021/12/13 00:00:01;;;;;;;5.50;5.10;;;;;;;7.50;100.00;101141.88;4995259;28;20207;-78
2021/12/13 00:02:34;;;;;;;6.07;5.67;;;;;;;7.53;100.00;101139.31;4987613;28;20211;-78
2021/12/13 00:05:07;;;;;;;5.33;4.97;;;;;;;7.56;100.00;101141.91;4987643;28;20633;-78
2021/12/13 00:07:37;;;;;;;6.03;5.63;;;;;;;7.51;100.00;101141.03;4994391;28;20223;-78
2021/12/13 00:10:11;;;;;;;6.23;5.80;;;;;;;7.49;100.00;101137.56;4995074;28;20214;-78
2021/12/13 00:12:42;;;;;;;6.90;6.37;;;;;;;7.51;100.00;101130.66;4995039;28;20199;-78
2021/12/13 00:15:14;;;;;;;6.77;6.30;;;;;;;7.54;100.00;101119.38;4981302;28;20212;-78
2021/12/13 00:17:45;;;;;;;5.43;5.13;;;;;;;7.55;100.00;101132.41;4991923;28;20230;-78
2021/12/13 00:20:19;;;;;;;6.23;5.80;;;;;;;7.60;100.00;101128.94;4990012;28;20222;-78
2021/12/13 00:22:50;;;;;;;6.33;5.93;;;;;;;7.60;100.00;101136.75;4987133;28;20206;-78
2021/12/13 00:25:20;;;;;;;6.43;5.93;;;;;;;7.60;100.00;101137.59;4994333;28;20203;-78
2021/12/13 00:27:52;;;;;;;6.53;6.13;;;;;;;7.61;100.00;101134.16;4986955;28;20208;-78
2021/12/13 00:30:32;;;;;;;6.03;5.63;;;;;;;7.64;100.00;101131.56;4994936;28;20207;-78
2021/12/13 00:33:12;;;;;;;6.70;6.20;;;;;;;7.69;100.00;101136.75;4985909;28;20665;-78
2021/12/13 00:35:44;;;;;;;6.10;5.63;;;;;;;7.72;100.00;101142.84;4986691;28;20246;-78
2021/12/13 00:38:14;;;;;;;6.53;6.03;;;;;;;7.73;100.00;101147.19;4994853;28;20261;-78
2021/12/13 00:40:44;;;;;;;6.47;6.07;;;;;;;7.75;100.00;101149.81;4987444;28;20253;-78
2021/12/13 00:43:15;;;;;;;6.60;6.10;;;;;;;7.78;100.00;101154.13;4987841;28;20253;-78
2021/12/13 00:46:00;;;;;;;7.63;7.07;;;;;;;7.79;100.00;101161.94;4987101;28;20860;-78
2021/12/13 00:48:30;;;;;;;6.83;6.33;;;;;;;7.82;100.00;101167.13;4989743;28;20222;-78
2021/12/13 00:51:03;;;;;;;6.67;6.17;;;;;;;7.74;100.00;101163.66;4993938;28;20677;-78
2021/12/13 00:53:34;;;;;;;6.20;5.80;;;;;;;7.82;100.00;101164.53;4988615;28;20195;-78
2021/12/13 00:56:39;;;;;;;6.70;6.20;;;;;;;7.85;100.00;101161.06;4985157;28;20255;-78
2021/12/13 00:59:07;;;;;;;6.47;5.90;;;;;;;7.88;100.00;101177.56;4984238;28;20258;-76
2021/12/13 01:01:36;;;;;;;6.47;6.07;;;;;;;7.92;100.00;101186.25;4991967;28;20197;-77
2021/12/13 01:04:06;;;;;;;8.23;7.53;;;;;;;7.88;100.00;101179.31;4989803;28;20214;-78
2021/12/13 01:07:18;;;;;;;6.40;6.00;;;;;;;7.93;100.00;101182.81;4982848;28;20288;-78
2021/12/13 01:10:46;;;;;;;7.17;6.60;;;;;;;7.85;100.00;101171.47;4990345;28;20210;-78
2021/12/13 01:13:21;;;;;;;7.00;6.50;;;;;;;7.89;100.00;101168.91;4985491;28;20216;-77
2021/12/13 01:15:55;;;;;;;6.63;6.13;;;;;;;7.94;100.00;101172.38;4993835;28;20700;-77
2021/12/13 01:18:29;;;;;;;6.27;5.87;;;;;;;7.96;100.00;101183.66;4985325;28;20677;-78
2021/12/13 01:21:04;;;;;;;6.53;6.03;;;;;;;7.95;100.00;101186.28;4993305;28;20210;-78
2021/12/13 01:23:44;;;;;;;7.53;7.03;;;;;;;7.91;100.00;101189.72;4985836;28;20202;-78
2021/12/13 01:26:28;;;;;;;7.43;6.93;;;;;;;7.92;100.00;101181.03;4977077;28;20258;-77
2021/12/13 01:28:59;;;;;;;8.47;7.73;;;;;;;7.92;100.00;101176.72;4986674;28;20207;-78
2021/12/13 01:31:29;;;;;;;7.70;7.00;;;;;;;7.92;100.00;101176.72;4981919;28;20569;-78
2021/12/13 01:33:56;;;;;;;7.17;6.67;;;;;;;7.95;100.00;101178.47;4982033;28;20231;-78
2021/12/13 01:36:28;;;;;;;7.57;6.97;;;;;;;7.95;100.00;101170.66;4977443;28;20273;-77
2021/12/13 01:38:58;;;;;;;7.37;6.87;;;;;;;8.01;100.00;101182.81;4992903;28;20214;-77
2021/12/13 01:41:35;;;;;;;7.67;7.07;;;;;;;8.02;100.00;101175.00;4984251;28;20205;-78
2021/12/13 01:44:07;;;;;;;7.63;7.03;;;;;;;8.05;100.00;101174.19;4986111;28;20204;-78
2021/12/13 01:46:37;;;;;;;7.90;7.30;;;;;;;7.95;100.00;101181.06;4996349;28;20697;-78
2021/12/13 01:49:05;;;;;;;8.07;7.47;;;;;;;7.95;100.00;101173.28;4997074;28;20230;-78
2021/12/13 01:51:33;;;;;;;7.40;6.80;;;;;;;8.01;100.00;101169.78;4988962;28;20203;-78
2021/12/13 01:54:06;;;;;;;7.50;7.00;;;;;;;8.06;100.00;101174.16;4988930;28;20304;-77
2021/12/13 01:56:41;;;;;;;7.50;6.80;;;;;;;8.09;100.00;101173.31;4997380;28;20640;-78
2021/12/13 01:59:41;;;;;;;7.07;6.57;;;;;;;8.11;100.00;101180.25;4991198;28;20287;-78
2021/12/13 02:02:13;;;;;;;8.27;6.93;;;;;;;8.08;100.00;101174.16;4991498;28;20234;-76
2021/12/13 02:04:40;;;;;;;7.50;6.80;;;;;;;8.08;100.00;101177.63;4988509;28;20673;-76
2021/12/13 02:07:08;;;;;;;7.87;7.27;;;;;;;8.02;100.00;101176.75;4985664;28;20720;-77
2021/12/13 02:09:38;;;;;;;8.20;7.60;;;;;;;8.05;100.00;101168.97;4979205;28;20204;-76
2021/12/13 02:12:10;;;;;;;8.20;7.50;;;;;;;8.11;100.00;101176.78;4981343;28;20211;-76
2021/12/13 02:14:47;;;;;;;7.83;7.23;;;;;;;8.11;100.00;101172.44;4993152;28;20286;-76
2021/12/13 02:17:16;;;;;;;7.80;7.10;;;;;;;8.07;100.00;101173.31;4976246;28;20242;-76
2021/12/13 02:19:48;;;;;;;8.97;8.27;;;;;;;8.12;100.00;101173.31;4993867;28;20207;-76
2021/12/13 02:22:40;;;;;;;8.20;7.47;;;;;;;8.14;100.00;101176.78;4988675;28;20207;-76
2021/12/13 02:25:19;;;;;;;8.83;8.03;;;;;;;8.21;100.00;101181.16;4982899;28;20205;-76
2021/12/13 02:27:51;;;;;;;9.73;8.87;;;;;;;8.20;100.00;101179.41;4978912;28;20830;-76
2021/12/13 02:30:23;;;;;;;10.33;9.53;;;;;;;8.21;100.00;101183.75;4994541;28;20272;-76
2021/12/13 02:32:50;;;;;;;10.13;9.33;;;;;;;8.21;100.00;101186.34;4986160;28;20211;-76
2021/12/13 02:35:19;;;;;;;11.40;10.43;;;;;;;8.24;100.00;101190.69;4987027;28;20274;-76
2021/12/13 02:37:47;;;;;;;11.10;10.20;;;;;;;8.26;100.00;101192.41;4986264;28;20752;-76
2021/12/13 02:40:16;;;;;;;11.70;10.60;;;;;;;8.24;100.00;101198.47;4994908;28;20198;-76
2021/12/13 02:42:44;;;;;;;12.27;11.27;;;;;;;8.25;100.00;101192.44;4994404;28;20202;-76
2021/12/13 02:45:17;;;;;;;13.33;12.13;;;;;;;8.27;100.00;101195.91;4994581;28;20194;-76
2021/12/13 02:47:49;;;;;;;14.73;13.33;;;;;;;8.29;100.00;101191.56;4985974;28;20208;-76
2021/12/13 02:50:21;;;;;;;14.87;13.50;;;;;;;8.34;100.00;101203.75;4982522;28;20927;-77
2021/12/13 02:52:49;;;;;;;13.40;12.30;;;;;;;8.37;100.00;101210.66;4990740;28;20208;-77
2021/12/13 02:55:22;;;;;;;15.80;14.20;;;;;;;8.26;100.00;101209.75;4994108;28;20226;-76
2021/12/13 02:57:53;;;;;;;15.47;14.00;;;;;;;8.35;100.00;101215.00;4985875;28;20211;-77
2021/12/13 03:00:24;;;;;;;15.57;14.17;;;;;;;8.34;100.00;101216.75;4987457;28;20273;-77
2021/12/13 03:02:53;;;;;;;15.53;14.03;;;;;;;8.39;100.00;101219.34;4985436;28;20210;-77
2021/12/13 03:05:24;;;;;;;16.17;14.53;;;;;;;8.33;100.00;101222.78;4984050;28;20202;-76
2021/12/13 03:07:55;;;;;;;15.73;14.07;;;;;;;8.39;100.00;101232.34;4990508;28;20253;-76
2021/12/13 03:10:26;;;;;;;16.23;14.53;;;;;;;8.38;100.00;101234.94;4985395;28;20202;-77
2021/12/13 03:12:52;;;;;;;16.60;15.00;;;;;;;8.34;100.00;101239.25;4985512;28;20662;-77
2021/12/13 03:15:23;;;;;;;17.67;15.17;;;;;;;8.37;100.00;101238.44;4993512;28;20223;-77
2021/12/13 03:17:57;;;;;;;16.27;14.67;;;;;;;8.35;100.00;101225.41;4987079;28;20207;-76
2021/12/13 03:20:38;;;;;;;18.83;16.37;;;;;;;8.35;100.00;101222.81;4992717;28;20203;-77
2021/12/13 03:23:17;;;;;;;15.80;14.27;;;;;;;8.37;100.00;101228.03;4993366;28;20206;-76
2021/12/13 03:26:04;;;;;;;16.90;15.03;;;;;;;8.37;100.00;101233.22;4985634;28;20225;-76
2021/12/13 03:28:44;;;;;;;17.73;15.80;;;;;;;8.36;100.00;101221.94;4986465;28;20190;-76
2021/12/13 03:31:13;;;;;;;16.47;14.77;;;;;;;8.33;100.00;101225.41;4985793;28;20255;-76
2021/12/13 03:33:49;;;;;;;20.20;15.73;;;;;;;8.35;100.00;101223.66;4989056;28;20215;-77
2021/12/13 03:36:20;;;;;;;17.87;16.00;;;;;;;8.40;100.00;101233.22;4982203;28;20700;-76
2021/12/13 03:38:51;;;;;;;17.13;15.43;;;;;;;8.44;100.00;101230.66;4987766;28;20262;-76
2021/12/13 03:41:20;;;;;;;20.83;15.90;;;;;;;8.40;100.00;101234.06;4993256;28;20257;-76
2021/12/13 03:43:51;;;;;;;18.17;16.37;;;;;;;8.48;100.00;101239.34;4985926;28;20266;-77
2021/12/13 03:46:20;;;;;;;21.00;16.37;;;;;;;8.49;100.00;101239.34;4990922;28;20721;-77
2021/12/13 03:48:48;;;;;;;17.97;16.20;;;;;;;8.55;100.00;101252.38;4985847;28;20264;-76
2021/12/13 03:51:17;;;;;;;22.70;17.17;;;;;;;8.51;100.00;101252.38;4977285;28;20270;-76
2021/12/13 03:53:46;;;;;;;20.00;16.50;;;;;;;8.52;100.00;101259.28;4992734;28;20200;-77
2021/12/13 03:56:18;;;;;;;24.67;18.83;;;;;;;8.55;100.00;101261.91;4977726;28;20231;-77
2021/12/13 03:58:48;;;;;;;24.77;17.90;;;;;;;8.51;100.00;101270.59;4992678;28;20733;-77
2021/12/13 04:01:22;;;;;;;19.53;16.93;;;;;;;8.51;100.00;101268.84;4984887;28;20258;-77
2021/12/13 04:03:51;;;;;;;19.60;16.87;;;;;;;8.52;100.00;101272.31;4985570;28;20199;-77
2021/12/13 04:06:20;;;;;;;21.43;17.23;;;;;;;8.54;100.00;101276.66;4992628;28;20235;-77
2021/12/13 04:08:49;;;;;;;29.20;19.77;;;;;;;8.49;100.00;101269.72;4981963;28;20251;-77
2021/12/13 04:11:17;;;;;;;29.97;19.43;;;;;;;8.54;100.00;101274.06;4981361;28;20253;-77
2021/12/13 04:13:46;;;;;;;28.20;19.03;;;;;;;8.45;100.00;101278.38;4983606;28;20202;-77
2021/12/13 04:16:29;;;;;;;28.07;19.30;;;;;;;8.52;100.00;101277.50;4981514;28;20228;-76
2021/12/13 04:19:07;;;;;;;23.60;18.83;;;;;;;8.53;100.00;101276.66;4978557;28;20297;-76
2021/12/13 04:21:41;;;;;;;23.90;18.33;;;;;;;8.50;100.00;101282.72;4982977;28;20200;-77
2021/12/13 04:24:11;;;;;;;25.80;19.37;;;;;;;8.47;100.00;101282.72;4981455;28;20266;-76
2021/12/13 04:26:41;;;;;;;22.80;18.77;;;;;;;8.49;100.00;101280.97;4983086;28;20224;-77
2021/12/13 04:29:16;;;;;;;25.97;19.10;;;;;;;8.54;100.00;101288.78;4986602;28;20204;-76
2021/12/13 04:31:43;;;;;;;24.70;18.53;;;;;;;8.57;100.00;101298.34;4981509;28;20294;-77
2021/12/13 04:34:09;;;;;;;20.07;17.07;;;;;;;8.59;100.00;101300.09;4981601;28;20215;-77
2021/12/13 04:36:39;;;;;;;19.03;17.03;;;;;;;8.61;100.00;101318.31;4982414;28;20748;-77
2021/12/13 04:39:08;;;;;;;23.97;17.87;;;;;;;8.64;100.00;101327.00;4978910;28;20266;-76
2021/12/13 04:41:42;;;;;;;21.50;17.60;;;;;;;8.61;100.00;101323.53;4982421;28;20255;-77
2021/12/13 04:44:11;;;;;;;23.57;18.60;;;;;;;8.58;100.00;101321.75;4986448;28;20679;-77
2021/12/13 04:46:40;;;;;;;26.00;18.73;;;;;;;8.51;100.00;101325.22;4990920;28;20277;-77
2021/12/13 04:49:11;;;;;;;19.53;17.40;;;;;;;8.54;100.00;101323.50;4987214;28;20710;-77
2021/12/13 04:51:43;;;;;;;29.07;20.57;;;;;;;8.45;100.00;101323.47;4989707;28;20203;-77
2021/12/13 04:54:11;;;;;;;30.43;21.03;;;;;;;8.48;100.00;101307.88;4991697;28;20204;-76
2021/12/13 04:56:40;;;;;;;22.50;17.17;;;;;;;8.53;100.00;101319.16;4976088;28;20274;-77
2021/12/13 04:59:09;;;;;;;25.40;19.33;;;;;;;8.55;100.00;101314.81;4987399;28;20200;-77
2021/12/13 05:01:36;;;;;;;26.00;19.30;;;;;;;8.55;100.00;101317.41;4973006;28;20674;-77
2021/12/13 05:04:06;;;;;;;29.87;19.07;;;;;;;8.50;100.00;101310.47;4991448;28;20623;-77
2021/12/13 05:06:36;;;;;;;23.33;18.40;;;;;;;8.52;100.00;101314.81;4985005;28;20612;-76
2021/12/13 05:09:06;;;;;;;27.43;19.53;;;;;;;8.57;100.00;101316.56;4984820;28;20578;-76
2021/12/13 05:11:44;;;;;;;23.57;19.40;;;;;;;8.60;100.00;101314.81;4987688;28;20199;-77
2021/12/13 05:14:12;;;;;;;28.53;19.33;;;;;;;8.64;100.00;101319.22;4983801;28;20199;-77
2021/12/13 05:16:44;;;;;;;27.13;19.27;;;;;;;8.67;100.00;101328.75;4975079;28;20224;-76
2021/12/13 05:19:14;;;;;;;23.17;18.03;;;;;;;8.69;100.00;101335.69;4985120;28;20324;-77
2021/12/13 05:21:44;;;;;;;27.00;18.60;;;;;;;8.63;100.00;101335.66;4982938;28;20735;-77
2021/12/13 05:24:16;;;;;;;25.67;19.30;;;;;;;8.67;100.00;101341.75;4984858;28;20257;-77
2021/12/13 05:26:53;;;;;;;25.90;18.63;;;;;;;8.65;100.00;101338.28;4982897;28;20273;-77
2021/12/13 05:29:28;;;;;;;28.37;19.13;;;;;;;8.63;100.00;101332.22;4985862;28;20196;-77
2021/12/13 05:32:01;;;;;;;23.17;18.73;;;;;;;8.59;100.00;101323.50;4981443;28;20222;-77
2021/12/13 05:34:33;;;;;;;27.67;19.77;;;;;;;8.63;100.00;101321.78;4980477;28;20199;-77
2021/12/13 05:37:04;;;;;;;27.40;20.07;;;;;;;8.65;100.00;101320.06;4982020;28;20228;-77
2021/12/13 05:39:31;;;;;;;23.37;18.33;;;;;;;8.67;100.00;101319.19;4985229;28;20195;-77
2021/12/13 05:42:00;;;;;;;24.80;19.00;;;;;;;8.66;100.00;101329.59;4987547;28;20669;-77
2021/12/13 05:44:32;;;;;;;26.57;19.23;;;;;;;8.62;100.00;101326.16;4982925;28;20219;-77
2021/12/13 05:47:00;;;;;;;25.57;19.60;;;;;;;8.68;100.00;101330.47;4989575;28;20251;-77
2021/12/13 05:49:32;;;;;;;23.60;18.33;;;;;;;8.70;100.00;101332.25;4985894;28;20218;-77
2021/12/13 05:52:06;;;;;;;21.47;17.17;;;;;;;8.73;100.00;101337.44;4990692;28;20195;-77
2021/12/13 05:54:37;;;;;;;28.97;20.47;;;;;;;8.67;100.00;101341.75;4984805;28;20254;-76
2021/12/13 05:57:08;;;;;;;24.57;19.33;;;;;;;8.73;100.00;101339.19;4989694;28;20223;-76
2021/12/13 05:59:41;;;;;;;26.13;20.20;;;;;;;8.74;100.00;101343.50;4985347;28;20193;-77
2021/12/13 06:02:12;;;;;;;31.70;19.67;;;;;;;8.68;100.00;101336.56;4989966;28;20254;-76
2021/12/13 06:04:44;;;;;;;31.83;20.23;;;;;;;8.68;100.00;101346.97;4985303;28;20195;-76
2021/12/13 06:07:22;;;;;;;25.93;18.47;;;;;;;8.70;100.00;101345.25;4982072;28;20229;-76
2021/12/13 06:09:55;;;;;;;24.83;19.33;;;;;;;8.73;100.00;101347.00;4983411;28;20662;-76
2021/12/13 06:12:29;;;;;;;22.07;18.47;;;;;;;8.72;100.00;101348.72;4983432;28;20206;-77
2021/12/13 06:15:05;;;;;;;26.47;19.60;;;;;;;8.76;100.00;101352.22;4989572;28;20206;-76
2021/12/13 06:17:33;;;;;;;26.63;19.70;;;;;;;8.76;100.00;101365.22;4985400;28;20272;-76
2021/12/13 06:20:05;;;;;;;26.97;20.30;;;;;;;8.81;100.00;101370.44;4991008;28;20257;-76
2021/12/13 06:22:34;;;;;;;23.93;18.17;;;;;;;8.77;100.00;101377.38;4982671;28;20208;-76
2021/12/13 06:25:04;;;;;;;27.97;20.90;;;;;;;8.72;100.00;101379.97;4982694;28;20682;-76
2021/12/13 06:27:33;;;;;;;30.40;20.93;;;;;;;8.72;100.00;101389.47;4985940;28;20222;-76
2021/12/13 06:30:07;;;;;;;27.23;19.97;;;;;;;8.74;100.00;101382.53;4986673;28;20207;-76
2021/12/13 06:32:40;;;;;;;27.50;19.60;;;;;;;8.82;100.00;101398.19;4983378;28;20205;-76
2021/12/13 06:35:30;;;;;;;27.30;19.87;;;;;;;8.80;100.00;101403.41;4984315;28;20203;-76
2021/12/13 06:37:57;;;;;;;22.03;18.50;;;;;;;8.75;100.00;101403.38;4987802;28;20217;-76
2021/12/13 06:40:27;;;;;;;21.93;18.70;;;;;;;8.87;100.00;101404.31;4986500;28;20203;-76
2021/12/13 06:42:54;;;;;;;25.73;19.17;;;;;;;8.79;100.00;101403.41;4994381;28;20211;-76
2021/12/13 06:45:27;;;;;;;23.40;19.67;;;;;;;8.84;100.00;101412.97;4977651;28;20204;-76
2021/12/13 06:47:57;;;;;;;22.87;17.77;;;;;;;8.80;100.00;101418.16;4977967;28;20204;-77
2021/12/13 06:50:26;;;;;;;28.10;19.40;;;;;;;8.71;100.00;101408.59;4975852;28;20325;-76
2021/12/13 06:53:08;;;;;;;24.03;18.73;;;;;;;8.74;100.00;101409.47;4983057;28;20675;-76
2021/12/13 06:55:34;;;;;;;21.27;17.97;;;;;;;8.72;100.00;101413.81;4982980;28;20771;-76
2021/12/13 06:58:03;;;;;;;22.47;18.33;;;;;;;8.65;100.00;101412.03;4986028;28;20268;-76
2021/12/13 07:00:35;;;;;;;20.10;17.83;;;;;;;8.70;100.00;101414.63;4983568;28;20195;-77
2021/12/13 07:03:05;;;;;;;22.37;17.63;;;;;;;8.70;100.00;101412.03;4985491;28;20199;-77
2021/12/13 07:05:36;;;;;;;24.83;19.03;;;;;;;8.68;100.00;101419.84;4986613;28;20230;-77
2021/12/13 07:08:05;;;;;;;28.43;18.73;;;;;;;8.69;100.00;101411.16;4983533;28;20234;-77
2021/12/13 07:10:34;;;;;;;23.00;18.60;;;;;;;8.69;100.00;101415.50;4983900;28;20257;-77
2021/12/13 07:13:03;;;;;;;20.63;18.23;;;;;;;8.71;100.00;101424.19;4983169;28;20255;-77
2021/12/13 07:15:37;;;;;;;18.50;16.70;;;;;;;8.71;100.00;101422.47;4982757;28;20706;-77
2021/12/13 07:18:15;;;;;;;20.63;17.60;;;;;;;8.76;100.00;101427.72;4983492;28;20230;-77
2021/12/13 07:20:46;;;;;;;20.20;16.93;;;;;;;8.77;100.00;101436.38;4984613;28;20206;-77
2021/12/13 07:23:14;;;;;;;17.73;15.93;;;;;;;8.78;100.00;101436.41;4987498;28;20195;-76
2021/12/13 07:25:42;;;;;;;18.23;15.37;;;;;;;8.81;100.00;101451.16;4985577;28;20277;-77
2021/12/13 07:28:10;;;;;;;17.40;15.60;;;;;;;8.83;100.00;101452.88;4982861;28;20258;-77
2021/12/13 07:30:39;;;;;;;15.60;13.90;;;;;;;8.86;100.00;101462.44;4985128;28;20272;-76
2021/12/13 07:33:08;;;;;;;16.27;14.50;;;;;;;8.78;100.00;101467.63;4985881;28;20254;-76
2021/12/13 07:35:40;;;;;;;20.30;15.87;;;;;;;8.78;100.00;101474.53;4983961;28;20222;-76
2021/12/13 07:38:09;;;;;;;17.50;15.70;;;;;;;8.81;100.00;101474.56;4982423;28;20477;-76
2021/12/13 07:40:40;;;;;;;15.23;13.70;;;;;;;8.77;100.00;101472.81;4983933;28;20623;-76
2021/12/13 07:43:11;;;;;;;17.03;15.20;;;;;;;8.80;100.00;101472.81;4983220;28;20198;-77
2021/12/13 07:45:46;;;;;;;22.77;20.27;;;;;;;8.80;100.00;101476.31;4986533;28;20605;-76
2021/12/13 07:48:15;;;;;;;15.33;13.90;;;;;;;8.83;100.00;101476.31;4982516;28;20205;-76
2021/12/13 07:50:43;;;;;;;18.33;15.37;;;;;;;8.87;100.00;101482.41;4982599;28;20206;-76
2021/12/13 07:53:13;;;;;;;15.23;13.73;;;;;;;8.91;100.00;101485.03;4982263;28;20200;-75
2021/12/13 07:55:46;;;;;;;15.13;13.70;;;;;;;8.90;100.00;101491.13;4981254;28;20277;-76
2021/12/13 07:58:16;;;;;;;15.20;13.60;;;;;;;8.86;100.00;101494.56;4983437;28;20203;-77
2021/12/13 08:00:46;;;;;;;16.07;14.10;;;;;;;8.86;100.00;101504.09;4982585;28;20245;-76
2021/12/13 08:03:16;;;;;;;14.53;13.03;;;;;;;8.83;100.00;101509.31;4982639;28;20211;-77
2021/12/13 08:05:46;;;;;;;13.40;12.10;;;;;;;8.86;100.00;101517.09;4984299;28;20297;-77
2021/12/13 08:08:19;;;;;;;14.03;12.40;;;;;;;8.88;100.00;101518.00;4982469;28;20193;-77
2021/12/13 08:10:47;;;;;;;14.53;12.07;;;;;;;8.82;100.00;101520.56;4980947;28;20189;-76
2021/12/13 08:13:17;;;;;;;13.33;12.03;;;;;;;8.79;100.00;101529.22;4982453;28;20228;-77
2021/12/13 08:15:48;;;;;;;14.00;12.70;;;;;;;8.77;100.00;101530.97;4981366;28;20223;-77
2021/12/13 08:18:24;;;;;;;14.10;12.60;;;;;;;8.78;100.00;101530.09;4981528;28;20654;-77
2021/12/13 08:20:56;;;;;;;13.70;12.30;;;;;;;8.78;100.00;101527.50;4982458;28;20202;-77
2021/12/13 08:23:27;;;;;;;12.90;11.63;;;;;;;8.80;100.00;101532.69;4980669;28;20207;-77
2021/12/13 08:25:57;;;;;;;11.63;10.47;;;;;;;8.82;100.00;101529.25;4985918;28;20590;-77
2021/12/13 08:28:33;;;;;;;11.60;10.47;;;;;;;8.89;100.00;101535.38;4982716;28;20256;-77
2021/12/13 08:31:02;;;;;;;11.00;10.00;;;;;;;8.97;100.00;101541.47;4981127;28;20222;-77
2021/12/13 08:33:33;;;;;;;12.07;10.90;;;;;;;8.97;100.00;101543.22;4983970;28;20745;-76
2021/12/13 08:36:04;;;;;;;11.17;10.07;;;;;;;8.99;100.00;101546.72;4980947;28;20227;-77
2021/12/13 08:38:38;;;;;;;10.07;9.17;;;;;;;9.05;100.00;101555.41;4981469;28;20196;-77
2021/12/13 08:41:19;;;;;;;10.43;8.83;;;;;;;9.09;100.00;101558.91;4980762;28;20745;-77
2021/12/13 08:43:51;;;;;;;9.30;8.43;;;;;;;9.17;100.00;101558.94;4981828;28;20238;-76
2021/12/13 08:46:33;;;;;;;9.00;8.20;;;;;;;9.17;100.00;101565.03;4982004;28;20226;-77
2021/12/13 08:49:01;;;;;;;9.60;8.70;;;;;;;9.20;100.00;101580.69;4984729;28;20287;-77
2021/12/13 08:51:30;;;;;;;12.70;8.67;;;;;;;9.26;100.00;101585.91;4983043;28;20673;-77
2021/12/13 08:54:05;;;;;;;10.90;9.70;;;;;;;9.25;100.00;101601.53;4982615;28;20261;-77
2021/12/13 08:56:35;;;;;;;11.17;10.13;;;;;;;9.28;100.00;101610.25;4983733;28;20277;-77
2021/12/13 08:59:09;;;;;;;11.03;9.87;;;;;;;9.39;100.00;101623.31;4983439;28;20201;-77
2021/12/13 09:01:46;;;;;;;9.47;8.57;;;;;;;9.48;100.00;101635.53;4983754;28;20679;-77
2021/12/13 09:04:24;;;;;;;9.70;8.73;;;;;;;9.52;100.00;101639.91;4982790;28;20192;-77
2021/12/13 09:06:55;;;;;;;12.00;10.80;;;;;;;9.57;100.00;101655.56;4982420;28;20239;-77
2021/12/13 09:09:22;;;;;;;11.63;10.53;;;;;;;9.56;100.00;101659.03;4983180;28;20199;-76
2021/12/13 09:11:56;;;;;;;11.23;10.23;;;;;;;9.56;100.00;101678.16;4982722;28;20278;-76
2021/12/13 09:14:27;;;;;;;11.97;10.80;;;;;;;9.58;100.00;101684.25;4979926;28;20202;-79
2021/12/13 09:17:16;;;;;;;11.63;10.60;;;;;;;9.62;100.00;101699.03;4979159;28;20227;-77
2021/12/13 09:19:51;;;;;;;10.37;9.37;;;;;;;9.44;100.00;101717.19;4980406;28;20195;-76
2021/12/13 09:22:21;;;;;;;10.57;9.67;;;;;;;9.56;100.00;101703.34;4980253;28;20191;-76
2021/12/13 09:24:52;;;;;;;11.47;10.43;;;;;;;9.56;100.00;101701.63;4294418;28;10000791;-76
2021/12/13 09:27:43;;;;;;;11.60;10.60;;;;;;;9.66;100.00;101705.16;4978591;28;20227;-76
2021/12/13 09:30:23;;;;;;;11.43;10.37;;;;;;;9.67;100.00;101712.09;4977108;28;20204;-76
2021/12/13 09:32:54;;;;;;;12.07;10.97;;;;;;;9.73;100.00;101726.03;4979772;28;20242;-76
2021/12/13 09:35:41;;;;;;;11.40;10.33;;;;;;;9.80;100.00;101726.94;4987581;28;20266;-76
2021/12/13 09:38:41;;;;;;;12.23;11.13;;;;;;;9.78;100.00;101741.72;4980299;28;20714;-77
2021/12/13 09:41:23;;;;;;;12.17;10.93;;;;;;;9.81;100.00;101748.66;4987464;28;20627;-77
2021/12/13 09:43:53;;;;;;;11.03;9.90;;;;;;;9.81;99.98;101746.94;4988274;28;20207;-76
2021/12/13 09:46:30;;;;;;;12.77;11.57;;;;;;;9.85;99.78;101753.94;4980671;28;20219;-76
2021/12/13 09:49:00;;;;;;;12.60;11.50;;;;;;;9.71;99.14;101771.19;4989020;28;20215;-76
2021/12/13 09:51:31;;;;;;;13.30;12.20;;;;;;;9.76;99.14;101766.91;4989077;28;20269;-77
2021/12/13 09:54:00;;;;;;;12.90;11.80;;;;;;;9.79;99.38;101766.03;4989309;28;20247;-76
2021/12/13 09:56:34;;;;;;;14.43;13.07;;;;;;;9.82;99.34;101760.84;4989090;28;20234;-76
2021/12/13 09:59:06;;;;;;;15.60;14.03;;;;;;;9.82;99.35;101766.06;4988586;28;20247;-76
2021/12/13 10:01:37;;;;;;;14.73;13.53;;;;;;;9.88;99.22;101766.97;4988540;28;20211;-76
2021/12/13 10:04:08;;;;;;;14.27;13.07;;;;;;;9.80;99.10;101773.00;4992947;28;20260;-76
2021/12/13 10:06:38;;;;;;;15.40;13.93;;;;;;;9.83;98.86;101776.53;4992599;28;20263;-76
2021/12/13 10:09:08;;;;;;;16.23;14.63;;;;;;;9.90;98.52;101775.66;4993005;28;20199;-76
2021/12/13 10:11:39;;;;;;;18.47;16.63;;;;;;;9.94;98.37;101773.94;4992564;28;20207;-76
2021/12/13 10:14:09;;;;;;;18.23;16.53;;;;;;;9.90;98.10;101780.88;4992279;28;20262;-76
2021/12/13 10:16:44;;;;;;;20.27;18.07;;;;;;;9.95;97.90;101786.16;4979140;28;20259;-76
2021/12/13 10:19:16;;;;;;;19.83;17.90;;;;;;;9.72;97.88;101784.25;4981161;28;20254;-76
2021/12/13 10:21:45;;;;;;;20.50;18.47;;;;;;;9.66;98.00;101772.94;4977940;28;20674;-76
2021/12/13 10:24:16;;;;;;;22.33;19.63;;;;;;;9.73;98.43;101764.25;4991544;28;20569;-76
2021/12/13 10:26:44;;;;;;;20.93;18.63;;;;;;;9.79;98.31;101766.94;4983953;28;20277;-76
2021/12/13 10:29:14;;;;;;;21.03;18.83;;;;;;;9.84;98.31;101766.94;4983466;28;20848;-76
2021/12/13 10:31:45;;;;;;;20.83;18.73;;;;;;;9.85;98.08;101766.06;4984214;28;20301;-76
2021/12/13 10:34:16;;;;;;;25.13;19.97;;;;;;;9.88;98.07;101768.72;4984514;28;20379;-76
2021/12/13 10:36:47;;;;;;;22.90;20.53;;;;;;;9.87;98.05;101779.97;4980177;28;20271;-76
2021/12/13 10:39:20;;;;;;;23.70;20.97;;;;;;;9.83;98.15;101784.34;4972817;28;20241;-76
2021/12/13 10:41:49;;;;;;;22.23;19.83;;;;;;;9.88;98.36;101774.78;4980174;28;20200;-76
2021/12/13 10:44:26;;;;;;;22.57;20.07;;;;;;;9.72;97.96;101786.00;4984911;28;20651;-75
2021/12/13 10:46:55;;;;;;;24.27;19.00;;;;;;;9.70;98.15;101775.56;4987013;28;20219;-76
2021/12/13 10:49:26;;;;;;;27.70;21.07;;;;;;;9.76;98.21;101771.25;4983733;28;20726;-76
2021/12/13 10:51:57;;;;;;;21.80;19.53;;;;;;;9.69;98.20;101770.31;4985830;28;20585;-76
2021/12/13 10:54:27;;;;;;;23.00;20.60;;;;;;;9.72;98.44;101766.00;4987101;28;20207;-76
2021/12/13 10:56:58;;;;;;;26.40;20.77;;;;;;;9.79;98.31;101759.09;4981586;28;20322;-76
2021/12/13 10:59:27;;;;;;;22.67;20.13;;;;;;;9.87;98.34;101764.34;4972026;28;20656;-76
2021/12/13 11:01:59;;;;;;;21.60;19.30;;;;;;;9.87;98.09;101774.78;4980196;28;20204;-76
2021/12/13 11:04:32;;;;;;;21.87;19.53;;;;;;;9.94;97.97;101772.22;4977262;28;20576;-76
2021/12/13 11:06:59;;;;;;;23.33;19.80;;;;;;;9.90;97.84;101773.06;4973601;28;20342;-76
2021/12/13 11:09:26;;;;;;;21.43;19.30;;;;;;;9.81;97.38;101793.88;4977023;28;20562;-76
2021/12/13 11:11:57;;;;;;;22.87;19.30;;;;;;;9.90;97.71;101782.63;4990462;28;20674;-76
2021/12/13 11:14:24;;;;;;;22.00;19.80;;;;;;;9.97;97.76;101770.47;4980361;28;20251;-76
2021/12/13 11:16:54;;;;;;;22.27;19.17;;;;;;;10.03;97.56;101770.50;4979920;28;20278;-76
2021/12/13 11:19:26;;;;;;;23.47;18.50;;;;;;;10.08;97.67;101774.03;4972158;28;20205;-76
2021/12/13 11:22:01;;;;;;;19.50;17.53;;;;;;;10.07;97.19;101793.16;4986316;28;20886;-76
2021/12/13 11:24:32;;;;;;;21.53;17.80;;;;;;;10.07;96.60;101807.06;4990221;28;20265;-76
2021/12/13 11:27:02;;;;;;;20.80;18.73;;;;;;;10.14;96.30;101821.00;4986161;28;20659;-76
2021/12/13 11:29:29;;;;;;;19.63;17.63;;;;;;;10.15;96.31;101828.00;4981907;28;20211;-76
2021/12/13 11:32:28;;;;;;;21.13;18.90;;;;;;;10.07;95.76;101838.38;4982690;28;20577;-76
2021/12/13 11:35:12;;;;;;;20.90;16.90;;;;;;;10.10;95.96;101829.69;4979541;28;20208;-76
2021/12/13 11:38:03;;;;;;;24.30;19.23;;;;;;;10.11;96.18;101826.22;4989657;28;20339;-76